sensor_id;sensor_type;location;lat;lon;timestamp;P1;durP1;ratioP1;P2;durP2;ratioP2
16520;SDS011;8373;48.110;11.522;2022-12-29T00:01:37;8.27;;;3.57;;
16520;SDS011;8373;48.110;11.522;2022-12-29T00:04:04;8.27;;;3.57;;
16520;SDS011;8373;48.110;11.522;2022-12-29T00:06:32;14.40;;;3.33;;
16520;SDS011;8373;48.110;11.522;2022-12-29T00:08:59;8.07;;;3.43;;
16520;SDS011;8373;48.110;11.522;2022-12-29T00:11:27;8.13;;;3.30;;
16520;SDS011;8373;48.110;11.522;2022-12-29T00:13:54;8.60;;;2.93;;
16520;SDS011;8373;48.110;11.522;2022-12-29T00:16:40;7.97;;;3.30;;
16520;SDS011;8373;48.110;11.522;2022-12-29T00:19:08;8.33;;;3.30;;
16520;SDS011;8373;48.110;11.522;2022-12-29T00:21:57;8.30;;;3.60;;
16520;SDS011;8373;48.110;11.522;2022-12-29T00:24:42;7.53;;;3.00;;
16520;SDS011;8373;48.110;11.522;2022-12-29T00:27:28;8.17;;;3.63;;
16520;SDS011;8373;48.110;11.522;2022-12-29T00:30:14;7.73;;;3.57;;
16520;SDS011;8373;48.110;11.522;2022-12-29T00:33:00;9.50;;;3.50;;
16520;SDS011;8373;48.110;11.522;2022-12-29T00:35:45;9.40;;;3.00;;
16520;SDS011;8373;48.110;11.522;2022-12-29T00:38:17;7.27;;;2.90;;
16520;SDS011;8373;48.110;11.522;2022-12-29T00:41:02;9.70;;;3.30;;
16520;SDS011;8373;48.110;11.522;2022-12-29T00:43:47;7.10;;;3.00;;
16520;SDS011;8373;48.110;11.522;2022-12-29T00:46:35;15.63;;;3.93;;
16520;SDS011;8373;48.110;11.522;2022-12-29T00:49:03;8.67;;;3.53;;
16520;SDS011;8373;48.110;11.522;2022-12-29T00:51:48;7.57;;;2.90;;
16520;SDS011;8373;48.110;11.522;2022-12-29T00:54:15;6.60;;;2.60;;
16520;SDS011;8373;48.110;11.522;2022-12-29T00:56:43;7.80;;;3.13;;
16520;SDS011;8373;48.110;11.522;2022-12-29T00:59:13;6.63;;;2.90;;
16520;SDS011;8373;48.110;11.522;2022-12-29T01:01:46;11.53;;;3.10;;
16520;SDS011;8373;48.110;11.522;2022-12-29T01:04:14;7.10;;;3.33;;
16520;SDS011;8373;48.110;11.522;2022-12-29T01:06:41;6.57;;;3.10;;
16520;SDS011;8373;48.110;11.522;2022-12-29T01:09:08;7.07;;;2.83;;
16520;SDS011;8373;48.110;11.522;2022-12-29T01:11:53;8.33;;;3.07;;
16520;SDS011;8373;48.110;11.522;2022-12-29T01:14:22;9.53;;;3.13;;
16520;SDS011;8373;48.110;11.522;2022-12-29T01:16:49;7.03;;;3.10;;
16520;SDS011;8373;48.110;11.522;2022-12-29T01:19:17;8.83;;;2.90;;
16520;SDS011;8373;48.110;11.522;2022-12-29T01:21:45;5.80;;;2.47;;
16520;SDS011;8373;48.110;11.522;2022-12-29T01:24:12;7.00;;;3.00;;
16520;SDS011;8373;48.110;11.522;2022-12-29T01:26:40;6.87;;;2.90;;
16520;SDS011;8373;48.110;11.522;2022-12-29T01:29:07;6.80;;;2.80;;
16520;SDS011;8373;48.110;11.522;2022-12-29T01:31:36;7.20;;;2.47;;
16520;SDS011;8373;48.110;11.522;2022-12-29T01:34:03;7.77;;;3.13;;
16520;SDS011;8373;48.110;11.522;2022-12-29T01:36:31;6.30;;;2.83;;
16520;SDS011;8373;48.110;11.522;2022-12-29T01:38:58;7.67;;;3.17;;
16520;SDS011;8373;48.110;11.522;2022-12-29T01:41:25;7.57;;;3.13;;
16520;SDS011;8373;48.110;11.522;2022-12-29T01:43:53;7.87;;;3.03;;
16520;SDS011;8373;48.110;11.522;2022-12-29T01:46:23;5.97;;;2.40;;
16520;SDS011;8373;48.110;11.522;2022-12-29T01:48:55;8.40;;;2.90;;
16520;SDS011;8373;48.110;11.522;2022-12-29T01:51:26;7.43;;;2.70;;
16520;SDS011;8373;48.110;11.522;2022-12-29T01:53:57;6.43;;;2.37;;
16520;SDS011;8373;48.110;11.522;2022-12-29T01:56:26;7.00;;;2.80;;
16520;SDS011;8373;48.110;11.522;2022-12-29T01:58:54;9.50;;;3.03;;
16520;SDS011;8373;48.110;11.522;2022-12-29T02:01:38;8.83;;;3.17;;
16520;SDS011;8373;48.110;11.522;2022-12-29T02:04:06;8.33;;;2.70;;
16520;SDS011;8373;48.110;11.522;2022-12-29T02:06:39;8.20;;;3.13;;
16520;SDS011;8373;48.110;11.522;2022-12-29T02:09:10;9.77;;;2.57;;
16520;SDS011;8373;48.110;11.522;2022-12-29T02:11:37;6.37;;;2.40;;
16520;SDS011;8373;48.110;11.522;2022-12-29T02:14:07;6.50;;;2.67;;
16520;SDS011;8373;48.110;11.522;2022-12-29T02:16:45;6.50;;;2.90;;
16520;SDS011;8373;48.110;11.522;2022-12-29T02:19:35;8.80;;;2.70;;
16520;SDS011;8373;48.110;11.522;2022-12-29T02:22:22;10.40;;;3.10;;
16520;SDS011;8373;48.110;11.522;2022-12-29T02:25:04;6.50;;;2.80;;
16520;SDS011;8373;48.110;11.522;2022-12-29T02:27:53;6.10;;;2.57;;
16520;SDS011;8373;48.110;11.522;2022-12-29T02:30:32;6.90;;;2.93;;
16520;SDS011;8373;48.110;11.522;2022-12-29T02:33:07;7.03;;;2.97;;
16520;SDS011;8373;48.110;11.522;2022-12-29T02:35:49;6.70;;;2.60;;
16520;SDS011;8373;48.110;11.522;2022-12-29T02:38:25;7.33;;;2.80;;
16520;SDS011;8373;48.110;11.522;2022-12-29T02:41:07;8.53;;;3.30;;
16520;SDS011;8373;48.110;11.522;2022-12-29T02:43:50;11.00;;;2.70;;
16520;SDS011;8373;48.110;11.522;2022-12-29T02:46:26;8.33;;;2.50;;
16520;SDS011;8373;48.110;11.522;2022-12-29T02:49:01;7.77;;;3.10;;
16520;SDS011;8373;48.110;11.522;2022-12-29T02:51:34;7.43;;;3.20;;
16520;SDS011;8373;48.110;11.522;2022-12-29T02:54:05;7.60;;;3.03;;
16520;SDS011;8373;48.110;11.522;2022-12-29T02:56:50;9.10;;;2.97;;
16520;SDS011;8373;48.110;11.522;2022-12-29T02:59:17;9.90;;;2.90;;
16520;SDS011;8373;48.110;11.522;2022-12-29T03:01:50;7.73;;;2.80;;
16520;SDS011;8373;48.110;11.522;2022-12-29T03:04:56;6.90;;;2.77;;
16520;SDS011;8373;48.110;11.522;2022-12-29T03:07:39;7.47;;;3.03;;
16520;SDS011;8373;48.110;11.522;2022-12-29T03:10:14;7.90;;;3.20;;
16520;SDS011;8373;48.110;11.522;2022-12-29T03:12:48;8.50;;;3.10;;
16520;SDS011;8373;48.110;11.522;2022-12-29T03:15:41;6.80;;;2.83;;
16520;SDS011;8373;48.110;11.522;2022-12-29T03:18:43;6.50;;;2.70;;
16520;SDS011;8373;48.110;11.522;2022-12-29T03:21:17;6.70;;;2.83;;
16520;SDS011;8373;48.110;11.522;2022-12-29T03:24:11;9.80;;;2.97;;
16520;SDS011;8373;48.110;11.522;2022-12-29T03:26:39;12.93;;;3.23;;
16520;SDS011;8373;48.110;11.522;2022-12-29T03:29:09;6.90;;;2.37;;
16520;SDS011;8373;48.110;11.522;2022-12-29T03:31:37;6.13;;;2.63;;
16520;SDS011;8373;48.110;11.522;2022-12-29T03:34:06;8.20;;;2.83;;
16520;SDS011;8373;48.110;11.522;2022-12-29T03:36:35;6.47;;;2.60;;
16520;SDS011;8373;48.110;11.522;2022-12-29T03:39:10;8.10;;;2.83;;
16520;SDS011;8373;48.110;11.522;2022-12-29T03:41:39;7.73;;;2.70;;
16520;SDS011;8373;48.110;11.522;2022-12-29T03:44:09;5.63;;;2.30;;
16520;SDS011;8373;48.110;11.522;2022-12-29T03:46:37;11.80;;;3.00;;
16520;SDS011;8373;48.110;11.522;2022-12-29T03:49:04;6.43;;;2.80;;
16520;SDS011;8373;48.110;11.522;2022-12-29T03:51:33;7.33;;;2.90;;
16520;SDS011;8373;48.110;11.522;2022-12-29T03:54:00;8.30;;;3.43;;
16520;SDS011;8373;48.110;11.522;2022-12-29T03:56:27;6.87;;;2.50;;
16520;SDS011;8373;48.110;11.522;2022-12-29T03:58:54;16.83;;;3.10;;
16520;SDS011;8373;48.110;11.522;2022-12-29T04:01:21;8.83;;;3.50;;
16520;SDS011;8373;48.110;11.522;2022-12-29T04:03:48;8.90;;;3.03;;
16520;SDS011;8373;48.110;11.522;2022-12-29T04:06:16;9.03;;;2.80;;
16520;SDS011;8373;48.110;11.522;2022-12-29T04:08:43;7.30;;;2.90;;
16520;SDS011;8373;48.110;11.522;2022-12-29T04:11:10;6.57;;;2.50;;
16520;SDS011;8373;48.110;11.522;2022-12-29T04:13:37;7.03;;;2.50;;
16520;SDS011;8373;48.110;11.522;2022-12-29T04:16:06;7.80;;;3.23;;
16520;SDS011;8373;48.110;11.522;2022-12-29T04:18:33;6.13;;;2.73;;
16520;SDS011;8373;48.110;11.522;2022-12-29T04:21:00;9.27;;;3.10;;
16520;SDS011;8373;48.110;11.522;2022-12-29T04:23:30;6.70;;;2.40;;
16520;SDS011;8373;48.110;11.522;2022-12-29T04:25:58;6.23;;;2.80;;
16520;SDS011;8373;48.110;11.522;2022-12-29T04:28:25;7.93;;;3.13;;
16520;SDS011;8373;48.110;11.522;2022-12-29T04:30:53;11.33;;;3.17;;
16520;SDS011;8373;48.110;11.522;2022-12-29T04:33:20;7.43;;;2.50;;
16520;SDS011;8373;48.110;11.522;2022-12-29T04:35:48;6.73;;;2.93;;
16520;SDS011;8373;48.110;11.522;2022-12-29T04:38:15;7.07;;;2.80;;
16520;SDS011;8373;48.110;11.522;2022-12-29T04:40:43;7.00;;;3.10;;
16520;SDS011;8373;48.110;11.522;2022-12-29T04:43:10;16.60;;;3.47;;
16520;SDS011;8373;48.110;11.522;2022-12-29T04:45:38;8.20;;;3.17;;
16520;SDS011;8373;48.110;11.522;2022-12-29T04:48:05;8.13;;;3.30;;
16520;SDS011;8373;48.110;11.522;2022-12-29T04:50:32;6.10;;;2.80;;
16520;SDS011;8373;48.110;11.522;2022-12-29T04:52:59;10.00;;;3.40;;
16520;SDS011;8373;48.110;11.522;2022-12-29T04:55:26;8.03;;;2.77;;
16520;SDS011;8373;48.110;11.522;2022-12-29T04:57:54;8.10;;;2.67;;
16520;SDS011;8373;48.110;11.522;2022-12-29T05:00:21;8.23;;;3.40;;
16520;SDS011;8373;48.110;11.522;2022-12-29T05:02:48;9.27;;;3.20;;
16520;SDS011;8373;48.110;11.522;2022-12-29T05:05:16;6.00;;;2.40;;
16520;SDS011;8373;48.110;11.522;2022-12-29T05:07:43;9.57;;;3.10;;
16520;SDS011;8373;48.110;11.522;2022-12-29T05:10:10;9.00;;;2.77;;
16520;SDS011;8373;48.110;11.522;2022-12-29T05:12:38;7.43;;;2.87;;
16520;SDS011;8373;48.110;11.522;2022-12-29T05:15:07;6.97;;;2.67;;
16520;SDS011;8373;48.110;11.522;2022-12-29T05:17:35;7.40;;;3.07;;
16520;SDS011;8373;48.110;11.522;2022-12-29T05:20:03;8.83;;;3.20;;
16520;SDS011;8373;48.110;11.522;2022-12-29T05:22:30;8.73;;;3.20;;
16520;SDS011;8373;48.110;11.522;2022-12-29T05:24:57;7.07;;;3.37;;
16520;SDS011;8373;48.110;11.522;2022-12-29T05:27:24;6.73;;;3.00;;
16520;SDS011;8373;48.110;11.522;2022-12-29T05:29:51;9.80;;;3.00;;
16520;SDS011;8373;48.110;11.522;2022-12-29T05:32:19;7.40;;;2.83;;
16520;SDS011;8373;48.110;11.522;2022-12-29T05:34:46;6.53;;;2.90;;
16520;SDS011;8373;48.110;11.522;2022-12-29T05:37:13;6.70;;;3.33;;
16520;SDS011;8373;48.110;11.522;2022-12-29T05:39:40;7.30;;;3.00;;
16520;SDS011;8373;48.110;11.522;2022-12-29T05:42:07;9.23;;;3.10;;
16520;SDS011;8373;48.110;11.522;2022-12-29T05:44:34;6.60;;;2.83;;
16520;SDS011;8373;48.110;11.522;2022-12-29T05:47:01;7.20;;;3.20;;
16520;SDS011;8373;48.110;11.522;2022-12-29T05:49:30;6.63;;;2.70;;
16520;SDS011;8373;48.110;11.522;2022-12-29T05:51:57;9.17;;;3.40;;
16520;SDS011;8373;48.110;11.522;2022-12-29T05:54:24;8.00;;;3.20;;
16520;SDS011;8373;48.110;11.522;2022-12-29T05:56:51;6.20;;;2.93;;
16520;SDS011;8373;48.110;11.522;2022-12-29T05:59:18;7.30;;;3.47;;
16520;SDS011;8373;48.110;11.522;2022-12-29T06:01:44;7.43;;;3.00;;
16520;SDS011;8373;48.110;11.522;2022-12-29T06:04:11;10.77;;;3.60;;
16520;SDS011;8373;48.110;11.522;2022-12-29T06:06:40;10.27;;;3.13;;
16520;SDS011;8373;48.110;11.522;2022-12-29T06:09:09;10.53;;;3.83;;
16520;SDS011;8373;48.110;11.522;2022-12-29T06:11:36;7.70;;;3.10;;
16520;SDS011;8373;48.110;11.522;2022-12-29T06:14:03;6.80;;;2.50;;
16520;SDS011;8373;48.110;11.522;2022-12-29T06:16:30;8.80;;;2.93;;
16520;SDS011;8373;48.110;11.522;2022-12-29T06:18:57;12.07;;;3.43;;
16520;SDS011;8373;48.110;11.522;2022-12-29T06:21:24;8.73;;;3.23;;
16520;SDS011;8373;48.110;11.522;2022-12-29T06:23:53;7.10;;;3.23;;
16520;SDS011;8373;48.110;11.522;2022-12-29T06:26:20;8.23;;;3.50;;
16520;SDS011;8373;48.110;11.522;2022-12-29T06:28:47;8.30;;;3.20;;
16520;SDS011;8373;48.110;11.522;2022-12-29T06:31:14;7.00;;;3.13;;
16520;SDS011;8373;48.110;11.522;2022-12-29T06:33:41;7.40;;;3.20;;
16520;SDS011;8373;48.110;11.522;2022-12-29T06:36:08;6.80;;;3.10;;
16520;SDS011;8373;48.110;11.522;2022-12-29T06:38:34;12.20;;;3.33;;
16520;SDS011;8373;48.110;11.522;2022-12-29T06:41:03;13.00;;;3.43;;
16520;SDS011;8373;48.110;11.522;2022-12-29T06:43:30;8.70;;;3.80;;
16520;SDS011;8373;48.110;11.522;2022-12-29T06:45:58;7.60;;;3.73;;
16520;SDS011;8373;48.110;11.522;2022-12-29T06:48:25;7.40;;;3.27;;
16520;SDS011;8373;48.110;11.522;2022-12-29T06:50:52;7.27;;;3.60;;
16520;SDS011;8373;48.110;11.522;2022-12-29T06:53:19;7.80;;;3.23;;
16520;SDS011;8373;48.110;11.522;2022-12-29T06:55:46;8.40;;;3.33;;
16520;SDS011;8373;48.110;11.522;2022-12-29T06:58:14;9.50;;;3.53;;
16520;SDS011;8373;48.110;11.522;2022-12-29T07:00:41;7.90;;;3.80;;
16520;SDS011;8373;48.110;11.522;2022-12-29T07:03:08;7.10;;;3.40;;
16520;SDS011;8373;48.110;11.522;2022-12-29T07:05:35;7.77;;;3.57;;
16520;SDS011;8373;48.110;11.522;2022-12-29T07:08:02;8.07;;;3.37;;
16520;SDS011;8373;48.110;11.522;2022-12-29T07:10:30;6.90;;;3.47;;
16520;SDS011;8373;48.110;11.522;2022-12-29T07:12:57;10.27;;;3.70;;
16520;SDS011;8373;48.110;11.522;2022-12-29T07:15:25;7.43;;;3.53;;
16520;SDS011;8373;48.110;11.522;2022-12-29T07:17:52;7.70;;;3.60;;
16520;SDS011;8373;48.110;11.522;2022-12-29T07:20:19;7.37;;;3.60;;
16520;SDS011;8373;48.110;11.522;2022-12-29T07:22:46;7.70;;;3.57;;
16520;SDS011;8373;48.110;11.522;2022-12-29T07:25:13;7.67;;;3.80;;
16520;SDS011;8373;48.110;11.522;2022-12-29T07:27:40;9.13;;;4.07;;
16520;SDS011;8373;48.110;11.522;2022-12-29T07:30:07;8.00;;;3.50;;
16520;SDS011;8373;48.110;11.522;2022-12-29T07:32:36;14.43;;;4.63;;
16520;SDS011;8373;48.110;11.522;2022-12-29T07:35:03;9.53;;;4.20;;
16520;SDS011;8373;48.110;11.522;2022-12-29T07:37:31;11.40;;;4.87;;
16520;SDS011;8373;48.110;11.522;2022-12-29T07:39:58;12.97;;;4.50;;
16520;SDS011;8373;48.110;11.522;2022-12-29T07:42:25;9.43;;;3.77;;
16520;SDS011;8373;48.110;11.522;2022-12-29T07:44:51;9.77;;;4.10;;
16520;SDS011;8373;48.110;11.522;2022-12-29T07:47:18;7.83;;;3.80;;
16520;SDS011;8373;48.110;11.522;2022-12-29T07:49:47;13.53;;;4.50;;
16520;SDS011;8373;48.110;11.522;2022-12-29T07:52:14;8.93;;;3.50;;
16520;SDS011;8373;48.110;11.522;2022-12-29T07:54:40;11.13;;;4.27;;
16520;SDS011;8373;48.110;11.522;2022-12-29T07:57:07;7.10;;;3.20;;
16520;SDS011;8373;48.110;11.522;2022-12-29T07:59:34;9.90;;;3.63;;
16520;SDS011;8373;48.110;11.522;2022-12-29T08:02:01;9.33;;;4.10;;
16520;SDS011;8373;48.110;11.522;2022-12-29T08:04:28;8.90;;;3.80;;
16520;SDS011;8373;48.110;11.522;2022-12-29T08:06:57;10.13;;;3.67;;
16520;SDS011;8373;48.110;11.522;2022-12-29T08:09:25;9.70;;;3.70;;
16520;SDS011;8373;48.110;11.522;2022-12-29T08:11:53;11.83;;;4.30;;
16520;SDS011;8373;48.110;11.522;2022-12-29T08:14:20;7.00;;;3.33;;
16520;SDS011;8373;48.110;11.522;2022-12-29T08:16:47;7.17;;;3.27;;
16520;SDS011;8373;48.110;11.522;2022-12-29T08:19:14;13.03;;;3.27;;
16520;SDS011;8373;48.110;11.522;2022-12-29T08:21:41;11.00;;;3.57;;
16520;SDS011;8373;48.110;11.522;2022-12-29T08:24:09;8.10;;;3.17;;
16520;SDS011;8373;48.110;11.522;2022-12-29T08:26:36;9.30;;;3.63;;
16520;SDS011;8373;48.110;11.522;2022-12-29T08:29:03;12.27;;;4.30;;
16520;SDS011;8373;48.110;11.522;2022-12-29T08:31:30;10.33;;;3.53;;
16520;SDS011;8373;48.110;11.522;2022-12-29T08:33:57;10.60;;;3.90;;
16520;SDS011;8373;48.110;11.522;2022-12-29T08:36:25;9.47;;;3.57;;
16520;SDS011;8373;48.110;11.522;2022-12-29T08:38:52;12.73;;;2.90;;
16520;SDS011;8373;48.110;11.522;2022-12-29T08:41:20;11.43;;;3.27;;
16520;SDS011;8373;48.110;11.522;2022-12-29T08:43:47;8.30;;;3.57;;
16520;SDS011;8373;48.110;11.522;2022-12-29T08:46:15;8.77;;;3.43;;
16520;SDS011;8373;48.110;11.522;2022-12-29T08:48:42;8.77;;;3.53;;
16520;SDS011;8373;48.110;11.522;2022-12-29T08:51:09;13.00;;;3.83;;
16520;SDS011;8373;48.110;11.522;2022-12-29T08:53:36;14.83;;;4.03;;
16520;SDS011;8373;48.110;11.522;2022-12-29T08:56:03;11.20;;;3.90;;
16520;SDS011;8373;48.110;11.522;2022-12-29T08:58:32;9.23;;;4.30;;
16520;SDS011;8373;48.110;11.522;2022-12-29T09:00:59;16.70;;;4.57;;
16520;SDS011;8373;48.110;11.522;2022-12-29T09:03:26;10.53;;;4.10;;
16520;SDS011;8373;48.110;11.522;2022-12-29T09:05:53;9.83;;;4.10;;
16520;SDS011;8373;48.110;11.522;2022-12-29T09:08:21;11.30;;;3.37;;
16520;SDS011;8373;48.110;11.522;2022-12-29T09:10:48;16.40;;;4.30;;
16520;SDS011;8373;48.110;11.522;2022-12-29T09:13:16;8.67;;;3.63;;
16520;SDS011;8373;48.110;11.522;2022-12-29T09:15:44;7.87;;;3.17;;
16520;SDS011;8373;48.110;11.522;2022-12-29T09:18:11;12.80;;;3.00;;
16520;SDS011;8373;48.110;11.522;2022-12-29T09:20:38;12.20;;;3.97;;
16520;SDS011;8373;48.110;11.522;2022-12-29T09:23:05;12.17;;;3.87;;
16520;SDS011;8373;48.110;11.522;2022-12-29T09:25:33;8.47;;;3.40;;
16520;SDS011;8373;48.110;11.522;2022-12-29T09:28:00;7.83;;;3.60;;
16520;SDS011;8373;48.110;11.522;2022-12-29T09:30:32;11.80;;;3.73;;
16520;SDS011;8373;48.110;11.522;2022-12-29T09:33:00;12.60;;;4.00;;
16520;SDS011;8373;48.110;11.522;2022-12-29T09:35:27;9.50;;;4.23;;
16520;SDS011;8373;48.110;11.522;2022-12-29T09:37:54;12.53;;;3.80;;
16520;SDS011;8373;48.110;11.522;2022-12-29T09:40:23;15.43;;;4.27;;
16520;SDS011;8373;48.110;11.522;2022-12-29T09:42:59;13.23;;;4.20;;
16520;SDS011;8373;48.110;11.522;2022-12-29T09:45:38;10.50;;;3.57;;
16520;SDS011;8373;48.110;11.522;2022-12-29T09:48:11;14.93;;;3.97;;
16520;SDS011;8373;48.110;11.522;2022-12-29T09:50:43;8.37;;;3.77;;
16520;SDS011;8373;48.110;11.522;2022-12-29T09:53:14;10.17;;;4.13;;
16520;SDS011;8373;48.110;11.522;2022-12-29T09:55:46;9.07;;;3.70;;
16520;SDS011;8373;48.110;11.522;2022-12-29T09:58:17;9.63;;;3.93;;
16520;SDS011;8373;48.110;11.522;2022-12-29T10:00:50;7.93;;;3.30;;
16520;SDS011;8373;48.110;11.522;2022-12-29T10:03:24;8.57;;;3.93;;
16520;SDS011;8373;48.110;11.522;2022-12-29T10:05:56;12.03;;;4.20;;
16520;SDS011;8373;48.110;11.522;2022-12-29T10:08:33;12.40;;;3.83;;
16520;SDS011;8373;48.110;11.522;2022-12-29T10:11:05;9.83;;;3.50;;
16520;SDS011;8373;48.110;11.522;2022-12-29T10:13:48;11.63;;;3.97;;
16520;SDS011;8373;48.110;11.522;2022-12-29T10:16:30;8.77;;;3.87;;
16520;SDS011;8373;48.110;11.522;2022-12-29T10:19:16;7.13;;;3.47;;
16520;SDS011;8373;48.110;11.522;2022-12-29T10:21:59;9.60;;;3.80;;
16520;SDS011;8373;48.110;11.522;2022-12-29T10:24:34;9.30;;;4.00;;
16520;SDS011;8373;48.110;11.522;2022-12-29T10:27:07;7.93;;;3.33;;
16520;SDS011;8373;48.110;11.522;2022-12-29T10:29:38;8.67;;;4.03;;
16520;SDS011;8373;48.110;11.522;2022-12-29T10:32:13;10.50;;;3.97;;
16520;SDS011;8373;48.110;11.522;2022-12-29T10:34:51;8.30;;;3.50;;
16520;SDS011;8373;48.110;11.522;2022-12-29T10:37:25;7.80;;;3.70;;
16520;SDS011;8373;48.110;11.522;2022-12-29T10:39:57;13.20;;;4.93;;
16520;SDS011;8373;48.110;11.522;2022-12-29T10:42:27;8.97;;;4.50;;
16520;SDS011;8373;48.110;11.522;2022-12-29T10:44:59;10.27;;;4.47;;
16520;SDS011;8373;48.110;11.522;2022-12-29T10:47:27;8.40;;;3.93;;
16520;SDS011;8373;48.110;11.522;2022-12-29T10:49:59;15.53;;;4.07;;
16520;SDS011;8373;48.110;11.522;2022-12-29T10:52:28;8.73;;;3.90;;
16520;SDS011;8373;48.110;11.522;2022-12-29T10:54:58;8.17;;;3.90;;
16520;SDS011;8373;48.110;11.522;2022-12-29T10:57:28;8.23;;;3.90;;
16520;SDS011;8373;48.110;11.522;2022-12-29T10:59:59;8.70;;;3.80;;
16520;SDS011;8373;48.110;11.522;2022-12-29T11:02:45;17.50;;;4.13;;
16520;SDS011;8373;48.110;11.522;2022-12-29T11:05:40;12.33;;;4.87;;
16520;SDS011;8373;48.110;11.522;2022-12-29T11:08:13;8.40;;;3.50;;
16520;SDS011;8373;48.110;11.522;2022-12-29T11:10:44;18.93;;;3.90;;
16520;SDS011;8373;48.110;11.522;2022-12-29T11:13:12;9.73;;;4.20;;
16520;SDS011;8373;48.110;11.522;2022-12-29T11:15:41;9.70;;;4.33;;
16520;SDS011;8373;48.110;11.522;2022-12-29T11:18:17;9.20;;;3.80;;
16520;SDS011;8373;48.110;11.522;2022-12-29T11:20:48;9.00;;;3.73;;
16520;SDS011;8373;48.110;11.522;2022-12-29T11:23:26;9.33;;;3.73;;
16520;SDS011;8373;48.110;11.522;2022-12-29T11:26:13;11.53;;;3.50;;
16520;SDS011;8373;48.110;11.522;2022-12-29T11:28:43;11.43;;;3.37;;
16520;SDS011;8373;48.110;11.522;2022-12-29T11:31:15;9.30;;;3.20;;
16520;SDS011;8373;48.110;11.522;2022-12-29T11:33:42;9.10;;;3.10;;
16520;SDS011;8373;48.110;11.522;2022-12-29T11:36:13;8.23;;;3.40;;
16520;SDS011;8373;48.110;11.522;2022-12-29T11:38:44;9.37;;;3.90;;
16520;SDS011;8373;48.110;11.522;2022-12-29T11:41:18;10.10;;;3.80;;
16520;SDS011;8373;48.110;11.522;2022-12-29T11:43:48;6.93;;;2.80;;
16520;SDS011;8373;48.110;11.522;2022-12-29T11:46:17;8.30;;;3.37;;
16520;SDS011;8373;48.110;11.522;2022-12-29T11:48:46;10.97;;;3.33;;
16520;SDS011;8373;48.110;11.522;2022-12-29T11:51:22;6.80;;;2.90;;
16520;SDS011;8373;48.110;11.522;2022-12-29T11:53:51;10.40;;;3.30;;
16520;SDS011;8373;48.110;11.522;2022-12-29T11:56:33;9.73;;;3.90;;
16520;SDS011;8373;48.110;11.522;2022-12-29T12:02:03;8.23;;;3.80;;
16520;SDS011;8373;48.110;11.522;2022-12-29T12:04:40;9.17;;;3.43;;
16520;SDS011;8373;48.110;11.522;2022-12-29T12:07:10;6.80;;;2.53;;
16520;SDS011;8373;48.110;11.522;2022-12-29T12:09:41;8.30;;;3.03;;
16520;SDS011;8373;48.110;11.522;2022-12-29T12:12:14;7.53;;;3.10;;
16520;SDS011;8373;48.110;11.522;2022-12-29T12:14:51;10.13;;;4.30;;
16520;SDS011;8373;48.110;11.522;2022-12-29T12:17:25;11.40;;;3.40;;
16520;SDS011;8373;48.110;11.522;2022-12-29T12:20:03;7.20;;;3.00;;
16520;SDS011;8373;48.110;11.522;2022-12-29T12:22:43;9.77;;;3.50;;
16520;SDS011;8373;48.110;11.522;2022-12-29T12:25:17;7.03;;;2.60;;
16520;SDS011;8373;48.110;11.522;2022-12-29T12:27:48;11.53;;;3.13;;
16520;SDS011;8373;48.110;11.522;2022-12-29T12:30:19;7.80;;;2.80;;
16520;SDS011;8373;48.110;11.522;2022-12-29T12:32:48;8.17;;;3.07;;
16520;SDS011;8373;48.110;11.522;2022-12-29T12:35:22;23.47;;;2.87;;
16520;SDS011;8373;48.110;11.522;2022-12-29T12:38:04;11.60;;;2.93;;
16520;SDS011;8373;48.110;11.522;2022-12-29T12:40:44;9.47;;;3.17;;
16520;SDS011;8373;48.110;11.522;2022-12-29T12:43:27;7.23;;;3.00;;
16520;SDS011;8373;48.110;11.522;2022-12-29T12:46:07;10.33;;;3.47;;
16520;SDS011;8373;48.110;11.522;2022-12-29T12:48:58;9.27;;;3.20;;
16520;SDS011;8373;48.110;11.522;2022-12-29T12:51:42;8.23;;;2.90;;
16520;SDS011;8373;48.110;11.522;2022-12-29T12:54:24;8.03;;;3.10;;
16520;SDS011;8373;48.110;11.522;2022-12-29T12:57:03;12.67;;;3.60;;
16520;SDS011;8373;48.110;11.522;2022-12-29T12:59:44;9.20;;;3.07;;
16520;SDS011;8373;48.110;11.522;2022-12-29T13:02:30;8.50;;;3.37;;
16520;SDS011;8373;48.110;11.522;2022-12-29T13:07:55;9.43;;;3.77;;
16520;SDS011;8373;48.110;11.522;2022-12-29T13:10:42;13.63;;;3.97;;
16520;SDS011;8373;48.110;11.522;2022-12-29T13:13:33;8.10;;;3.53;;
16520;SDS011;8373;48.110;11.522;2022-12-29T13:16:22;8.07;;;2.93;;
16520;SDS011;8373;48.110;11.522;2022-12-29T13:18:59;14.90;;;3.17;;
16520;SDS011;8373;48.110;11.522;2022-12-29T13:21:34;7.40;;;2.87;;
16520;SDS011;8373;48.110;11.522;2022-12-29T13:24:13;9.87;;;3.20;;
16520;SDS011;8373;48.110;11.522;2022-12-29T13:26:47;7.03;;;2.50;;
16520;SDS011;8373;48.110;11.522;2022-12-29T13:29:17;9.87;;;3.47;;
16520;SDS011;8373;48.110;11.522;2022-12-29T13:31:51;7.00;;;2.90;;
16520;SDS011;8373;48.110;11.522;2022-12-29T13:34:25;12.10;;;3.60;;
16520;SDS011;8373;48.110;11.522;2022-12-29T13:37:04;7.50;;;2.60;;
16520;SDS011;8373;48.110;11.522;2022-12-29T13:39:37;8.00;;;2.93;;
16520;SDS011;8373;48.110;11.522;2022-12-29T13:42:08;8.10;;;4.03;;
16520;SDS011;8373;48.110;11.522;2022-12-29T13:44:38;8.27;;;3.00;;
16520;SDS011;8373;48.110;11.522;2022-12-29T13:47:13;8.03;;;2.97;;
16520;SDS011;8373;48.110;11.522;2022-12-29T13:49:47;10.60;;;4.00;;
16520;SDS011;8373;48.110;11.522;2022-12-29T13:52:18;8.10;;;3.20;;
16520;SDS011;8373;48.110;11.522;2022-12-29T13:54:53;11.77;;;2.77;;
16520;SDS011;8373;48.110;11.522;2022-12-29T13:57:28;11.93;;;4.17;;
16520;SDS011;8373;48.110;11.522;2022-12-29T14:00:11;8.80;;;3.70;;
16520;SDS011;8373;48.110;11.522;2022-12-29T14:02:44;9.83;;;3.57;;
16520;SDS011;8373;48.110;11.522;2022-12-29T14:05:29;9.03;;;3.50;;
16520;SDS011;8373;48.110;11.522;2022-12-29T14:07:58;12.27;;;3.60;;
16520;SDS011;8373;48.110;11.522;2022-12-29T14:10:27;7.57;;;2.57;;
16520;SDS011;8373;48.110;11.522;2022-12-29T14:13:03;8.70;;;3.27;;
16520;SDS011;8373;48.110;11.522;2022-12-29T14:15:32;11.40;;;3.70;;
16520;SDS011;8373;48.110;11.522;2022-12-29T14:18:11;15.43;;;3.57;;
16520;SDS011;8373;48.110;11.522;2022-12-29T14:20:47;8.10;;;3.10;;
16520;SDS011;8373;48.110;11.522;2022-12-29T14:23:26;7.90;;;3.10;;
16520;SDS011;8373;48.110;11.522;2022-12-29T14:26:12;11.03;;;3.37;;
16520;SDS011;8373;48.110;11.522;2022-12-29T14:28:42;15.40;;;4.60;;
16520;SDS011;8373;48.110;11.522;2022-12-29T14:37:20;12.90;;;4.53;;
16520;SDS011;8373;48.110;11.522;2022-12-29T14:39:50;12.30;;;4.97;;
16520;SDS011;8373;48.110;11.522;2022-12-29T14:42:32;12.70;;;4.77;;
16520;SDS011;8373;48.110;11.522;2022-12-29T14:45:02;13.23;;;4.87;;
16520;SDS011;8373;48.110;11.522;2022-12-29T14:47:35;18.07;;;5.80;;
16520;SDS011;8373;48.110;11.522;2022-12-29T14:50:05;19.10;;;6.30;;
16520;SDS011;8373;48.110;11.522;2022-12-29T14:52:41;15.43;;;5.97;;
16520;SDS011;8373;48.110;11.522;2022-12-29T14:55:30;27.63;;;5.80;;
16520;SDS011;8373;48.110;11.522;2022-12-29T14:58:04;14.67;;;5.73;;
16520;SDS011;8373;48.110;11.522;2022-12-29T15:00:39;11.80;;;4.33;;
16520;SDS011;8373;48.110;11.522;2022-12-29T15:03:12;14.57;;;5.40;;
16520;SDS011;8373;48.110;11.522;2022-12-29T15:05:44;18.30;;;6.70;;
16520;SDS011;8373;48.110;11.522;2022-12-29T15:08:13;17.77;;;5.33;;
16520;SDS011;8373;48.110;11.522;2022-12-29T15:10:45;18.20;;;7.00;;
16520;SDS011;8373;48.110;11.522;2022-12-29T15:13:20;18.27;;;7.63;;
16520;SDS011;8373;48.110;11.522;2022-12-29T15:15:50;15.03;;;5.53;;
16520;SDS011;8373;48.110;11.522;2022-12-29T15:18:22;11.23;;;4.47;;
16520;SDS011;8373;48.110;11.522;2022-12-29T15:20:51;16.73;;;5.97;;
16520;SDS011;8373;48.110;11.522;2022-12-29T15:23:21;12.47;;;5.30;;